createdAt,value
2018-03-21T00:00:45.555Z,58.30
2018-03-21T00:03:11.817Z,59.50
2018-03-21T00:05:38.061Z,59.70
2018-03-21T00:08:04.317Z,60.20
2018-03-21T00:10:31.316Z,60.50
2018-03-21T00:12:57.573Z,60.70
2018-03-21T00:15:23.833Z,60.70
2018-03-21T00:17:50.813Z,62.30
2018-03-21T00:20:17.064Z,62.40
2018-03-21T00:22:43.320Z,61.60
2018-03-21T00:25:10.309Z,61.50
2018-03-21T00:27:36.587Z,61.90
2018-03-21T00:30:02.917Z,62.10
2018-03-21T00:32:29.169Z,62.50
2018-03-21T00:34:56.168Z,63.50
2018-03-21T00:37:22.432Z,63.40
2018-03-21T00:39:49.460Z,63.70
2018-03-21T00:42:15.710Z,63.50
2018-03-21T00:44:42.051Z,63.90
2018-03-21T00:47:08.693Z,64.40
2018-03-21T00:49:34.952Z,65.00
2018-03-21T00:52:01.234Z,65.60
2018-03-21T00:54:28.228Z,66.70
2018-03-21T00:56:54.495Z,66.40
2018-03-21T00:59:20.762Z,67.70
2018-03-21T01:01:47.011Z,68.10
2018-03-21T01:04:13.272Z,68.30
2018-03-21T01:06:39.520Z,68.80
2018-03-21T01:09:05.766Z,69.10
2018-03-21T01:11:32.794Z,70.10
2018-03-21T01:13:59.043Z,70.20
2018-03-21T01:16:26.067Z,70.90
2018-03-21T01:18:52.327Z,70.70
2018-03-21T01:21:19.317Z,71.30
2018-03-21T01:23:45.666Z,71.40
2018-03-21T01:26:11.910Z,71.20
2018-03-21T01:28:38.225Z,71.90
2018-03-21T01:31:04.498Z,73.40
2018-03-21T01:33:31.501Z,73.10
2018-03-21T01:35:57.808Z,73.00
2018-03-21T01:38:24.116Z,72.80
2018-03-21T01:40:50.411Z,73.20
2018-03-21T01:43:17.412Z,75.20
2018-03-21T01:45:50.808Z,74.70
2018-03-21T01:48:17.048Z,75.30
2018-03-21T01:50:43.331Z,75.90
2018-03-21T01:53:10.400Z,76.20
2018-03-21T01:55:36.672Z,76.40
2018-03-21T01:58:03.741Z,76.10
2018-03-21T02:00:30.028Z,76.60
2018-03-21T02:02:56.289Z,76.90
2018-03-21T02:05:22.581Z,77.20
2018-03-21T02:07:48.848Z,77.00
2018-03-21T02:10:15.153Z,76.60
2018-03-21T02:12:41.414Z,77.30
2018-03-21T02:15:07.669Z,78.00
2018-03-21T02:17:34.669Z,78.80
2018-03-21T02:20:00.939Z,78.70
2018-03-21T02:22:27.956Z,78.60
2018-03-21T02:24:54.976Z,79.60
2018-03-21T02:27:21.252Z,79.90
2018-03-21T02:29:47.520Z,79.90
2018-03-21T02:32:13.755Z,80.10
2018-03-21T02:34:40.016Z,79.90
2018-03-21T02:37:06.331Z,80.50
2018-03-21T02:39:32.594Z,80.70
2018-03-21T02:41:58.840Z,80.40
2018-03-21T02:44:25.848Z,81.00
2018-03-21T02:46:52.110Z,80.90
2018-03-21T02:49:19.104Z,82.00
2018-03-21T02:51:45.395Z,80.80
2018-03-21T02:54:12.406Z,81.90
2018-03-21T02:56:38.641Z,81.60
2018-03-21T02:59:05.219Z,82.30
2018-03-21T03:01:31.493Z,83.00
2018-03-21T03:03:57.729Z,83.30
2018-03-21T03:06:24.009Z,83.00
2018-03-21T03:08:50.992Z,83.70
2018-03-21T03:11:17.262Z,83.80
2018-03-21T03:13:43.494Z,84.40
2018-03-21T03:16:10.464Z,84.60
2018-03-21T03:18:36.714Z,84.70
2018-03-21T03:21:02.978Z,85.40
2018-03-21T03:23:29.239Z,85.30
2018-03-21T03:25:56.223Z,85.50
2018-03-21T03:28:22.468Z,85.50
2018-03-21T03:30:48.719Z,85.30
2018-03-21T03:33:15.013Z,85.90
2018-03-21T03:35:41.994Z,86.20
2018-03-21T03:38:08.244Z,86.20
2018-03-21T03:40:35.236Z,87.10
2018-03-21T03:43:01.500Z,86.90
2018-03-21T03:45:27.741Z,86.80
2018-03-21T03:47:53.981Z,87.30
2018-03-21T03:50:20.990Z,87.70
2018-03-21T03:52:47.242Z,88.00
2018-03-21T03:55:13.516Z,87.90
2018-03-21T03:57:39.803Z,88.30
2018-03-21T04:00:06.049Z,88.60
2018-03-21T04:02:33.088Z,89.00
2018-03-21T04:05:00.088Z,88.30
2018-03-21T04:07:26.354Z,88.70
2018-03-21T04:09:52.605Z,88.90
2018-03-21T04:12:18.869Z,89.30
2018-03-21T04:14:45.154Z,90.00
2018-03-21T04:17:12.156Z,90.40
2018-03-21T04:19:38.460Z,90.30
2018-03-21T04:22:04.755Z,90.60
2018-03-21T04:24:31.789Z,90.70
2018-03-21T04:26:58.055Z,90.70
2018-03-21T04:29:24.324Z,90.90
2018-03-21T04:31:50.587Z,90.90
2018-03-21T04:34:16.841Z,91.00
2018-03-21T04:36:43.112Z,91.00
2018-03-21T04:39:09.342Z,90.90
2018-03-21T04:41:35.645Z,91.00
2018-03-21T04:44:01.941Z,90.80
2018-03-21T04:46:28.284Z,90.60
2018-03-21T04:48:55.298Z,90.70
2018-03-21T04:51:21.569Z,90.70
2018-03-21T04:53:47.836Z,91.00
2018-03-21T04:56:14.107Z,90.90
2018-03-21T04:58:41.150Z,91.00
2018-03-21T05:01:07.436Z,91.00
2018-03-21T05:03:33.704Z,91.10
2018-03-21T05:05:59.965Z,91.20
2018-03-21T05:08:27.118Z,91.20
2018-03-21T05:10:53.396Z,91.10
2018-03-21T05:13:19.652Z,91.30
2018-03-21T05:15:46.712Z,91.00
2018-03-21T05:18:13.692Z,91.10
2018-03-21T05:20:39.959Z,91.20
2018-03-21T05:23:06.204Z,91.30
2018-03-21T05:25:32.460Z,91.40
2018-03-21T05:27:58.712Z,91.90
2018-03-21T05:30:24.984Z,91.60
2018-03-21T05:32:51.238Z,91.50
2018-03-21T05:35:18.265Z,91.50
2018-03-21T05:37:44.569Z,91.60
2018-03-21T05:40:10.814Z,91.50
2018-03-21T05:42:37.084Z,91.80
2018-03-21T05:45:03.380Z,91.90
2018-03-21T05:47:29.620Z,91.80
2018-03-21T05:49:56.672Z,91.70
2018-03-21T05:52:24.526Z,91.70
2018-03-21T05:54:50.812Z,91.80
2018-03-21T05:57:17.069Z,91.40
2018-03-21T05:59:43.337Z,90.70
2018-03-21T06:02:09.627Z,90.20
2018-03-21T06:04:35.931Z,88.00
2018-03-21T06:07:02.214Z,84.50
2018-03-21T06:09:28.475Z,79.90
2018-03-21T06:11:54.781Z,74.90
2018-03-21T06:14:21.788Z,66.90
2018-03-21T06:16:48.042Z,66.00
2018-03-21T06:19:14.312Z,63.40
2018-03-21T06:21:40.635Z,60.00
2018-03-21T06:24:06.957Z,56.90
2018-03-21T06:26:33.961Z,55.10
2018-03-21T06:29:00.248Z,55.10
2018-03-21T06:31:26.534Z,55.60
2018-03-21T06:33:53.578Z,54.00
2018-03-21T06:36:19.894Z,54.00
2018-03-21T06:38:46.160Z,52.20
2018-03-21T06:41:13.184Z,49.90
2018-03-21T06:43:39.480Z,50.10
2018-03-21T06:46:05.786Z,49.90
2018-03-21T06:48:32.054Z,48.60
2018-03-21T06:50:58.350Z,48.00
2018-03-21T06:53:24.660Z,45.20
2018-03-21T06:55:50.937Z,44.10
2018-03-21T06:58:17.220Z,41.90
2018-03-21T07:00:44.232Z,41.60
2018-03-21T07:03:10.548Z,41.40
2018-03-21T07:05:36.886Z,43.90
2018-03-21T07:08:03.204Z,43.60
2018-03-21T07:10:29.518Z,42.50
2018-03-21T07:12:55.780Z,40.80
2018-03-21T07:15:34.414Z,40.30
2018-03-21T07:18:00.720Z,40.30
2018-03-21T07:20:27.021Z,41.20
2018-03-21T07:22:53.344Z,41.70
2018-03-21T07:25:19.619Z,41.60
2018-03-21T07:27:45.896Z,40.00
2018-03-21T07:30:12.964Z,40.30
2018-03-21T07:32:39.276Z,40.50
2018-03-21T07:35:05.591Z,38.50
2018-03-21T07:37:31.856Z,38.20
2018-03-21T07:39:58.142Z,37.40
2018-03-21T07:42:24.415Z,38.70
2018-03-21T07:44:50.688Z,39.00
2018-03-21T07:47:16.957Z,41.20
2018-03-21T07:49:43.983Z,59.90
2018-03-21T07:52:10.275Z,59.80
2018-03-21T07:54:36.659Z,67.50
2018-03-21T07:57:03.767Z,82.20
2018-03-21T07:59:30.045Z,82.20
2018-03-21T08:01:57.043Z,90.10
2018-03-21T08:04:23.320Z,90.00
2018-03-21T08:06:50.301Z,92.30
2018-03-21T08:09:16.633Z,92.40
2018-03-21T08:11:43.578Z,91.50
2018-03-21T08:14:09.862Z,92.00
2018-03-21T08:16:36.878Z,90.90
2018-03-21T08:19:03.185Z,90.90
2018-03-21T08:21:29.473Z,91.50
2018-03-21T08:23:56.473Z,93.00
2018-03-21T08:26:22.740Z,93.00
2018-03-21T08:28:49.760Z,92.50
2018-03-21T08:31:16.040Z,92.50
2018-03-21T08:33:43.084Z,91.50
2018-03-21T08:36:10.154Z,91.70
2018-03-21T08:38:36.505Z,91.80
2018-03-21T08:41:02.865Z,91.70
2018-03-21T08:43:29.881Z,92.20
2018-03-21T08:45:56.178Z,92.20
2018-03-21T08:48:22.541Z,92.70
2018-03-21T08:50:48.837Z,93.30
2018-03-21T08:53:15.905Z,92.50
2018-03-21T08:55:42.231Z,92.50
2018-03-21T08:58:08.530Z,92.50
2018-03-21T09:00:34.825Z,91.80
2018-03-21T09:03:01.079Z,92.90
2018-03-21T09:05:27.380Z,92.90
2018-03-21T09:07:53.642Z,92.10
2018-03-21T09:10:20.024Z,92.30
2018-03-21T09:12:46.312Z,92.50
2018-03-21T09:15:12.571Z,93.10
2018-03-21T09:17:38.827Z,93.20
2018-03-21T09:20:05.109Z,92.60
2018-03-21T09:22:32.527Z,92.90
2018-03-21T09:24:58.776Z,92.80
2018-03-21T09:27:26.827Z,92.30
2018-03-21T09:29:54.063Z,92.40
2018-03-21T09:32:20.737Z,92.50
2018-03-21T09:34:47.462Z,92.50
2018-03-21T09:37:13.720Z,91.90
2018-03-21T09:39:39.989Z,92.60
2018-03-21T09:42:06.254Z,92.20
2018-03-21T09:44:32.529Z,91.80
2018-03-21T09:46:59.542Z,90.90
2018-03-21T09:49:25.783Z,90.90
2018-03-21T09:51:52.047Z,90.50
2018-03-21T09:54:18.725Z,90.60
2018-03-21T09:56:45.795Z,90.70
2018-03-21T09:59:12.044Z,90.60
2018-03-21T10:01:39.056Z,91.80
2018-03-21T10:04:05.343Z,91.80
2018-03-21T10:06:31.587Z,91.70
2018-03-21T10:08:57.881Z,91.80
2018-03-21T10:11:24.876Z,89.00
2018-03-21T10:13:51.143Z,88.90
2018-03-21T10:16:17.392Z,89.50
2018-03-21T10:18:44.403Z,89.70
2018-03-21T10:21:10.878Z,89.60
2018-03-21T10:23:37.201Z,90.10
2018-03-21T10:26:04.251Z,89.00
2018-03-21T10:28:31.260Z,90.10
2018-03-21T10:30:57.500Z,90.30
2018-03-21T10:33:23.879Z,91.00
2018-03-21T10:35:50.168Z,91.10
2018-03-21T10:38:16.452Z,90.00
2018-03-21T10:40:42.732Z,90.20
2018-03-21T10:43:09.756Z,88.60
2018-03-21T10:45:36.060Z,88.40
2018-03-21T10:48:02.325Z,90.00
2018-03-21T10:50:28.620Z,89.70
2018-03-21T10:52:54.887Z,89.20
2018-03-21T10:55:21.155Z,88.30
2018-03-21T10:57:47.436Z,86.20
2018-03-21T11:00:13.683Z,86.40
2018-03-21T11:02:46.912Z,88.00
2018-03-21T11:05:13.177Z,87.80
2018-03-21T11:07:39.507Z,85.80
2018-03-21T11:10:05.763Z,85.60
2018-03-21T11:12:32.144Z,83.20
2018-03-21T11:14:58.385Z,83.30
2018-03-21T11:17:24.665Z,83.10
2018-03-21T11:19:51.683Z,82.00
2018-03-21T11:22:17.940Z,82.00
2018-03-21T11:24:44.988Z,84.20
2018-03-21T11:27:11.224Z,84.00
2018-03-21T11:29:38.216Z,83.00
2018-03-21T11:32:04.565Z,83.30
2018-03-21T11:34:30.800Z,83.20
2018-03-21T11:36:57.064Z,83.10
2018-03-21T11:39:24.059Z,85.50
2018-03-21T11:41:50.296Z,85.30
2018-03-21T11:44:16.659Z,87.50
2018-03-21T11:46:42.949Z,86.90
2018-03-21T11:49:09.230Z,85.00
2018-03-21T11:51:36.244Z,81.80
2018-03-21T11:54:02.523Z,81.50
2018-03-21T11:56:28.773Z,81.60
2018-03-21T11:58:55.128Z,80.70
2018-03-21T12:01:21.400Z,81.90
2018-03-21T12:03:48.422Z,83.60
2018-03-21T12:06:14.736Z,83.70
2018-03-21T12:08:41.065Z,82.00
2018-03-21T12:11:07.360Z,80.80
2018-03-21T12:13:33.704Z,81.20
2018-03-21T12:15:59.999Z,80.30
2018-03-21T12:18:26.997Z,81.50
2018-03-21T12:20:53.262Z,81.40
2018-03-21T12:23:19.570Z,81.90
2018-03-21T12:25:45.836Z,79.90
2018-03-21T12:28:12.092Z,78.80
2018-03-21T12:30:38.368Z,78.50
2018-03-21T12:33:04.704Z,79.50
2018-03-21T12:35:30.969Z,79.10
2018-03-21T12:37:57.260Z,78.90
2018-03-21T12:40:23.541Z,78.20
2018-03-21T12:42:49.819Z,78.50
2018-03-21T12:45:16.128Z,79.00
2018-03-21T12:47:42.404Z,78.60
2018-03-21T12:50:08.822Z,76.90
2018-03-21T12:52:35.008Z,77.90
2018-03-21T12:55:01.292Z,75.10
2018-03-21T12:57:27.545Z,76.10
2018-03-21T12:59:53.817Z,81.10
2018-03-21T13:02:20.076Z,74.60
2018-03-21T13:04:46.408Z,71.00
2018-03-21T13:07:12.677Z,68.40
2018-03-21T13:09:38.958Z,70.50
2018-03-21T13:12:05.245Z,72.20
2018-03-21T13:14:31.561Z,64.90
2018-03-21T13:16:57.863Z,59.50
2018-03-21T13:19:24.097Z,57.20
2018-03-21T13:21:51.144Z,56.80
2018-03-21T13:24:17.388Z,56.70
2018-03-21T13:26:43.653Z,60.10
2018-03-21T13:29:09.984Z,58.40
2018-03-21T13:31:36.303Z,59.00
2018-03-21T13:34:02.578Z,57.80
2018-03-21T13:36:28.892Z,58.00
2018-03-21T13:38:55.225Z,58.00
2018-03-21T13:41:21.492Z,59.30
2018-03-21T13:43:48.508Z,64.50
2018-03-21T13:46:14.885Z,64.30
2018-03-21T13:48:41.143Z,61.70
2018-03-21T13:51:07.452Z,62.10
2018-03-21T13:53:33.729Z,62.30
2018-03-21T13:56:00.012Z,61.60
2018-03-21T13:58:26.306Z,59.10
2018-03-21T14:00:52.544Z,60.20
2018-03-21T14:03:19.543Z,62.20
2018-03-21T14:05:45.793Z,61.90
2018-03-21T14:08:12.099Z,61.50
2018-03-21T14:10:38.431Z,63.00
2018-03-21T14:13:04.727Z,57.40
2018-03-21T14:15:31.003Z,56.90
2018-03-21T14:17:57.264Z,56.20
2018-03-21T14:20:23.520Z,56.70
2018-03-21T14:22:49.822Z,58.10
2018-03-21T14:25:16.076Z,59.40
2018-03-21T14:27:43.067Z,62.90
2018-03-21T14:30:09.391Z,62.90
2018-03-21T14:32:35.633Z,62.00
2018-03-21T14:35:01.921Z,61.70
2018-03-21T14:37:28.182Z,62.80
2018-03-21T14:39:54.486Z,65.10
2018-03-21T14:42:20.888Z,62.60
2018-03-21T14:44:47.900Z,63.00
2018-03-21T14:47:14.194Z,63.00
2018-03-21T14:49:40.497Z,63.50
2018-03-21T14:52:07.600Z,51.20
2018-03-21T14:54:33.896Z,51.10
2018-03-21T14:57:00.177Z,48.50
2018-03-21T14:59:26.483Z,46.30
2018-03-21T15:01:52.808Z,45.20
2018-03-21T15:04:19.089Z,46.00
2018-03-21T15:06:46.168Z,47.00
2018-03-21T15:09:12.462Z,46.80
2018-03-21T15:11:38.733Z,46.90
2018-03-21T15:14:05.048Z,46.30
2018-03-21T15:16:31.366Z,45.00
2018-03-21T15:18:58.407Z,41.40
2018-03-21T15:21:25.446Z,40.90
2018-03-21T15:23:52.480Z,37.80
2018-03-21T15:26:18.823Z,38.00
2018-03-21T15:28:45.084Z,36.20
2018-03-21T15:31:11.364Z,38.40
2018-03-21T15:33:37.644Z,37.30
2018-03-21T15:36:03.920Z,40.50
2018-03-21T15:38:30.224Z,43.20
2018-03-21T15:40:56.488Z,44.60
2018-03-21T15:43:22.765Z,46.20
2018-03-21T15:45:49.054Z,48.50
2018-03-21T15:48:15.305Z,50.30
2018-03-21T15:50:41.588Z,50.90
2018-03-21T15:53:07.855Z,52.90
2018-03-21T15:55:34.237Z,52.50
2018-03-21T15:58:00.429Z,53.80
2018-03-21T16:00:27.432Z,53.30
2018-03-21T16:02:53.748Z,53.10
2018-03-21T16:05:20.003Z,54.50
2018-03-21T16:07:47.069Z,55.60
2018-03-21T16:10:13.328Z,55.80
2018-03-21T16:12:40.327Z,55.70
2018-03-21T16:15:06.583Z,55.60
2018-03-21T16:17:32.860Z,55.10
2018-03-21T16:19:59.157Z,54.20
2018-03-21T16:22:25.497Z,55.60
2018-03-21T16:24:52.552Z,56.40
2018-03-21T16:27:18.819Z,56.20
2018-03-21T16:29:45.107Z,57.40
2018-03-21T16:32:11.442Z,59.40
2018-03-21T16:34:37.688Z,60.60
2018-03-21T16:37:04.004Z,62.00
2018-03-21T16:39:30.302Z,63.20
2018-03-21T16:41:57.403Z,62.40
2018-03-21T16:44:23.636Z,62.40
2018-03-21T16:46:49.929Z,61.80
2018-03-21T16:49:16.984Z,63.90
2018-03-21T16:51:43.259Z,63.90
2018-03-21T16:54:09.556Z,64.30
2018-03-21T16:56:36.504Z,64.70
2018-03-21T16:59:02.795Z,64.80
2018-03-21T17:01:29.082Z,64.90
2018-03-21T17:03:55.431Z,64.80
2018-03-21T17:06:22.472Z,65.20
2018-03-21T17:08:48.726Z,65.10
2018-03-21T17:11:15.024Z,64.50
2018-03-21T17:13:41.284Z,63.10
2018-03-21T17:16:07.584Z,62.40
2018-03-21T17:18:33.828Z,62.10
2018-03-21T17:21:00.112Z,62.20
2018-03-21T17:23:26.378Z,62.80
2018-03-21T17:25:52.681Z,63.60
2018-03-21T17:28:18.953Z,63.80
2018-03-21T17:30:45.225Z,64.00
2018-03-21T17:33:12.231Z,65.80
2018-03-21T17:35:38.472Z,65.60
2018-03-21T17:38:05.553Z,66.20
2018-03-21T17:40:31.824Z,66.30
2018-03-21T17:42:58.124Z,65.70
2018-03-21T17:45:24.437Z,65.30
2018-03-21T17:47:50.732Z,66.00
2018-03-21T17:50:17.025Z,65.90
2018-03-21T17:52:43.308Z,64.90
2018-03-21T17:55:10.357Z,64.50
2018-03-21T17:57:36.603Z,64.70
2018-03-21T18:00:02.921Z,65.40
2018-03-21T18:02:29.209Z,65.30
2018-03-21T18:04:55.472Z,66.00
2018-03-21T18:07:21.752Z,66.60
2018-03-21T18:09:48.004Z,66.80
2018-03-21T18:12:14.276Z,66.60
2018-03-21T18:14:41.348Z,66.90
2018-03-21T18:17:07.619Z,66.80
2018-03-21T18:19:33.848Z,66.60
2018-03-21T18:22:00.088Z,67.20
2018-03-21T18:24:26.365Z,67.90
2018-03-21T18:26:52.604Z,68.20
2018-03-21T18:29:18.857Z,68.20
2018-03-21T18:31:45.110Z,67.80
2018-03-21T18:34:11.372Z,68.10
2018-03-21T18:36:37.616Z,68.30
2018-03-21T18:39:03.952Z,69.00
2018-03-21T18:41:30.978Z,69.10
2018-03-21T18:43:57.236Z,69.00
2018-03-21T18:46:23.563Z,69.90
2018-03-21T18:48:49.796Z,69.50
2018-03-21T18:51:16.062Z,69.90
2018-03-21T18:53:42.318Z,69.40
2018-03-21T18:56:09.308Z,68.60
2018-03-21T18:58:35.571Z,68.60
2018-03-21T19:01:01.876Z,69.50
2018-03-21T19:03:28.132Z,69.70
2018-03-21T19:05:54.388Z,69.70
2018-03-21T19:08:21.417Z,70.50
2018-03-21T19:10:48.437Z,70.30
2018-03-21T19:13:20.146Z,70.20
2018-03-21T19:15:41.712Z,71.30
2018-03-21T19:18:07.960Z,71.10
2018-03-21T19:20:34.241Z,70.40
2018-03-21T19:23:00.540Z,71.20
2018-03-21T19:25:27.606Z,72.30
2018-03-21T19:27:53.885Z,72.40
2018-03-21T19:30:20.201Z,72.70
2018-03-21T19:32:46.524Z,73.50
2018-03-21T19:35:12.917Z,74.20
2018-03-21T19:37:39.269Z,75.00
2018-03-21T19:40:05.851Z,75.40
2018-03-21T19:42:32.278Z,76.10
2018-03-21T19:44:58.638Z,75.60
2018-03-21T19:47:25.029Z,76.20
2018-03-21T19:49:51.459Z,76.30
2018-03-21T19:52:17.818Z,76.00
2018-03-21T19:54:44.289Z,75.80
2018-03-21T19:57:10.714Z,75.30
2018-03-21T19:59:37.173Z,75.00
2018-03-21T20:02:03.617Z,75.40
2018-03-21T20:04:30.052Z,75.40
2018-03-21T20:06:56.479Z,76.60
2018-03-21T20:09:23.648Z,75.50
2018-03-21T20:11:50.045Z,75.30
2018-03-21T20:14:17.132Z,75.80
2018-03-21T20:16:43.503Z,75.40
2018-03-21T20:19:09.989Z,75.00
2018-03-21T20:21:36.458Z,75.40
2018-03-21T20:24:03.692Z,75.40
2018-03-21T20:26:30.851Z,75.20
2018-03-21T20:28:58.089Z,76.10
2018-03-21T20:31:24.499Z,76.00
2018-03-21T20:33:50.857Z,75.70
2018-03-21T20:36:17.302Z,76.60
2018-03-21T20:38:44.377Z,78.00
2018-03-21T20:41:11.545Z,78.20
2018-03-21T20:43:37.950Z,78.20
2018-03-21T20:46:05.031Z,78.80
2018-03-21T20:48:31.392Z,78.60
2018-03-21T20:50:57.811Z,78.10
2018-03-21T20:53:24.250Z,77.90
2018-03-21T20:55:50.644Z,78.50
2018-03-21T20:58:17.037Z,77.80
2018-03-21T21:00:43.411Z,78.00
2018-03-21T21:03:09.697Z,78.70
2018-03-21T21:05:36.065Z,78.30
2018-03-21T21:08:03.093Z,78.70
2018-03-21T21:10:29.376Z,78.90
2018-03-21T21:12:55.641Z,79.30
2018-03-21T21:15:21.912Z,78.80
2018-03-21T21:17:48.921Z,79.20
2018-03-21T21:20:15.196Z,79.30
2018-03-21T21:22:41.533Z,80.10
2018-03-21T21:25:07.780Z,79.90
2018-03-21T21:27:34.048Z,79.70
2018-03-21T21:30:00.311Z,79.70
2018-03-21T21:32:27.332Z,79.50
2018-03-21T21:34:53.580Z,79.50
2018-03-21T21:37:20.565Z,80.30
2018-03-21T21:39:46.847Z,80.10
2018-03-21T21:42:13.841Z,81.10
2018-03-21T21:44:40.107Z,81.20
2018-03-21T21:47:06.348Z,81.40
2018-03-21T21:49:32.616Z,82.10
2018-03-21T21:51:58.875Z,82.10
2018-03-21T21:54:25.124Z,82.10
2018-03-21T21:56:51.392Z,82.50
2018-03-21T21:59:17.636Z,82.40
2018-03-21T22:01:43.899Z,83.10
2018-03-21T22:04:10.188Z,82.60
2018-03-21T22:06:37.204Z,81.90
2018-03-21T22:09:03.525Z,80.50
2018-03-21T22:11:29.780Z,80.40
2018-03-21T22:13:56.061Z,81.70
2018-03-21T22:16:22.364Z,80.90
2018-03-21T22:18:48.629Z,80.30
2018-03-21T22:21:14.908Z,80.50
2018-03-21T22:23:41.176Z,81.20
2018-03-21T22:26:07.427Z,81.80
2018-03-21T22:28:33.665Z,81.40
2018-03-21T22:30:59.915Z,82.00
2018-03-21T22:33:26.947Z,82.70
2018-03-21T22:35:53.303Z,82.80
2018-03-21T22:38:19.533Z,82.70
2018-03-21T22:40:45.808Z,83.30
2018-03-21T22:43:12.062Z,83.30
2018-03-21T22:45:39.048Z,84.80
2018-03-21T22:48:05.328Z,84.80
2018-03-21T22:50:31.671Z,85.70
2018-03-21T22:52:57.901Z,85.50
2018-03-21T22:55:24.154Z,85.20
2018-03-21T22:57:50.384Z,85.30
2018-03-21T23:00:16.644Z,85.60
2018-03-21T23:02:42.924Z,85.40
2018-03-21T23:05:09.965Z,86.00
2018-03-21T23:07:36.232Z,86.20
2018-03-21T23:10:02.528Z,86.20
2018-03-21T23:12:29.545Z,86.40
2018-03-21T23:14:55.795Z,86.10
2018-03-21T23:17:22.064Z,86.10
2018-03-21T23:19:48.316Z,85.80
2018-03-21T23:22:14.587Z,85.70
2018-03-21T23:24:40.821Z,85.60
2018-03-21T23:27:07.813Z,85.10
2018-03-21T23:29:34.060Z,85.30
2018-03-21T23:32:00.304Z,85.20
2018-03-21T23:34:26.676Z,85.00
2018-03-21T23:36:52.928Z,85.20
2018-03-21T23:39:19.207Z,85.20
2018-03-21T23:41:45.557Z,85.40
2018-03-21T23:44:12.579Z,85.10
2018-03-21T23:46:38.856Z,85.20
2018-03-21T23:49:05.104Z,84.60
2018-03-21T23:51:31.367Z,84.50
2018-03-21T23:53:57.729Z,84.20
2018-03-21T23:56:24.021Z,84.30
2018-03-21T23:58:50.278Z,84.30
